HESH METAR and TAF | Updated Today

HESH METAR

Sharm El Sheikh International Airport

Observation time: 62 min. ago

HESH 032100Z 31005KT CAVOK 20/13 Q1016 NOSIG

Need help? Read our tutorial on how to read METARs or read the parsed version below.

Sharm El Sheikh International Airport (HESH) METAR

  • Weather conditions on Fri, 03 Dec 2021 21:00:00 +0000 (62 min. ago):
  • Present conditions: Dry
  • Clouds: Clear skies
  • Visibility: Greater than 10 km
  • Wind: 310 degrees at 5 knots
  • Temperature: 20 celsius
  • Dew point: 13 celsius
  • Pressure: 1016 millibars
  • Remarks: None


Useful to know...

  • Codes: HESH/SSH
  • Airport elevation: 143ft
  • Municipality: Sharm el-Sheikh
  • Country: Egypt
  • Continent: Asia
  • Wikipedia page

HESH TAF

Sharm El Sheikh International Airport

TAF HESH 031700Z 0318/0424 32008KT CAVOK
Observation time: 5:02 hr. ago
Need help? Read our tutorial on how to read TAFs or read the parsed version below.

Parsed version of TAF for Sharm El Sheikh International Airport (HESH)

  • From 03 December at 18:00 UTC, to day 04 of the month at 24:00 UTC
  • Visibility: Greater than 10 km
  • Wind: 320 degrees at 8

Airports near HESH

HETR Weather
Region:

El Tor Airport

Not found in our database